sensor_id;sensor_type;location;lat;lon;timestamp;P1;durP1;ratioP1;P2;durP2;ratioP2
23404;SDS011;11875;49.356;2.718;2022-08-23T00:01:30;5.03;;;0.95;;
23404;SDS011;11875;49.356;2.718;2022-08-23T00:03:58;5.22;;;1.17;;
23404;SDS011;11875;49.356;2.718;2022-08-23T00:06:27;2.45;;;0.90;;
23404;SDS011;11875;49.356;2.718;2022-08-23T00:08:53;2.80;;;0.98;;
23404;SDS011;11875;49.356;2.718;2022-08-23T00:11:23;2.70;;;0.93;;
23404;SDS011;11875;49.356;2.718;2022-08-23T00:13:49;0.88;;;0.88;;
23404;SDS011;11875;49.356;2.718;2022-08-23T00:16:14;2.10;;;0.95;;
23404;SDS011;11875;49.356;2.718;2022-08-23T00:18:40;2.38;;;0.88;;
23404;SDS011;11875;49.356;2.718;2022-08-23T00:21:06;2.30;;;1.20;;
23404;SDS011;11875;49.356;2.718;2022-08-23T00:23:31;4.05;;;1.50;;
23404;SDS011;11875;49.356;2.718;2022-08-23T00:25:59;2.92;;;1.70;;
23404;SDS011;11875;49.356;2.718;2022-08-23T00:28:26;5.15;;;1.70;;
23404;SDS011;11875;49.356;2.718;2022-08-23T00:30:52;2.83;;;1.23;;
23404;SDS011;11875;49.356;2.718;2022-08-23T00:33:18;4.07;;;1.50;;
23404;SDS011;11875;49.356;2.718;2022-08-23T00:35:43;7.75;;;1.55;;
23404;SDS011;11875;49.356;2.718;2022-08-23T00:38:09;5.10;;;1.10;;
23404;SDS011;11875;49.356;2.718;2022-08-23T00:40:34;1.48;;;1.00;;
23404;SDS011;11875;49.356;2.718;2022-08-23T00:43:08;2.47;;;1.33;;
23404;SDS011;11875;49.356;2.718;2022-08-23T00:49:03;3.00;;;1.33;;
23404;SDS011;11875;49.356;2.718;2022-08-23T00:51:34;3.70;;;1.10;;
23404;SDS011;11875;49.356;2.718;2022-08-23T00:54:06;2.53;;;1.10;;
23404;SDS011;11875;49.356;2.718;2022-08-23T00:56:35;2.15;;;1.23;;
23404;SDS011;11875;49.356;2.718;2022-08-23T00:59:03;4.20;;;1.20;;
23404;SDS011;11875;49.356;2.718;2022-08-23T01:01:29;4.80;;;1.40;;
23404;SDS011;11875;49.356;2.718;2022-08-23T01:03:56;5.15;;;1.30;;
23404;SDS011;11875;49.356;2.718;2022-08-23T01:09:19;2.90;;;1.17;;
23404;SDS011;11875;49.356;2.718;2022-08-23T01:11:54;3.75;;;1.23;;
23404;SDS011;11875;49.356;2.718;2022-08-23T01:14:30;3.25;;;1.13;;
23404;SDS011;11875;49.356;2.718;2022-08-23T01:17:07;8.05;;;1.70;;
23404;SDS011;11875;49.356;2.718;2022-08-23T01:19:43;4.55;;;1.65;;
23404;SDS011;11875;49.356;2.718;2022-08-23T01:22:32;3.90;;;1.33;;
23404;SDS011;11875;49.356;2.718;2022-08-23T01:25:05;3.15;;;1.20;;
23404;SDS011;11875;49.356;2.718;2022-08-23T01:27:34;1.48;;;1.00;;
23404;SDS011;11875;49.356;2.718;2022-08-23T01:30:03;4.80;;;1.25;;
23404;SDS011;11875;49.356;2.718;2022-08-23T01:32:30;1.65;;;1.15;;
23404;SDS011;11875;49.356;2.718;2022-08-23T01:34:56;4.38;;;1.40;;
23404;SDS011;11875;49.356;2.718;2022-08-23T01:37:22;3.17;;;1.40;;
23404;SDS011;11875;49.356;2.718;2022-08-23T01:39:48;8.07;;;1.40;;
23404;SDS011;11875;49.356;2.718;2022-08-23T01:42:13;2.88;;;1.10;;
23404;SDS011;11875;49.356;2.718;2022-08-23T01:44:39;4.32;;;1.40;;
23404;SDS011;11875;49.356;2.718;2022-08-23T01:47:05;2.55;;;1.30;;
23404;SDS011;11875;49.356;2.718;2022-08-23T01:49:32;2.80;;;1.40;;
23404;SDS011;11875;49.356;2.718;2022-08-23T01:51:58;2.20;;;1.20;;
23404;SDS011;11875;49.356;2.718;2022-08-23T01:54:24;2.53;;;1.40;;
23404;SDS011;11875;49.356;2.718;2022-08-23T01:56:50;2.28;;;1.40;;
23404;SDS011;11875;49.356;2.718;2022-08-23T01:59:15;1.95;;;1.08;;
23404;SDS011;11875;49.356;2.718;2022-08-23T02:01:41;1.95;;;1.00;;
23404;SDS011;11875;49.356;2.718;2022-08-23T02:04:07;1.13;;;1.02;;
23404;SDS011;11875;49.356;2.718;2022-08-23T02:06:33;2.92;;;1.30;;
23404;SDS011;11875;49.356;2.718;2022-08-23T02:08:59;3.90;;;1.15;;
23404;SDS011;11875;49.356;2.718;2022-08-23T02:11:32;2.17;;;1.30;;
23404;SDS011;11875;49.356;2.718;2022-08-23T02:14:05;2.70;;;1.40;;
23404;SDS011;11875;49.356;2.718;2022-08-23T02:16:37;2.50;;;1.55;;
23404;SDS011;11875;49.356;2.718;2022-08-23T02:19:09;3.55;;;1.30;;
23404;SDS011;11875;49.356;2.718;2022-08-23T02:21:37;1.67;;;1.35;;
23404;SDS011;11875;49.356;2.718;2022-08-23T02:24:04;1.42;;;1.20;;
23404;SDS011;11875;49.356;2.718;2022-08-23T02:26:33;2.25;;;1.10;;
23404;SDS011;11875;49.356;2.718;2022-08-23T02:29:00;2.25;;;1.10;;
23404;SDS011;11875;49.356;2.718;2022-08-23T02:31:25;1.25;;;1.05;;
23404;SDS011;11875;49.356;2.718;2022-08-23T02:33:51;2.53;;;1.23;;
23404;SDS011;11875;49.356;2.718;2022-08-23T02:36:16;4.43;;;1.60;;
23404;SDS011;11875;49.356;2.718;2022-08-23T02:38:42;2.95;;;1.10;;
23404;SDS011;11875;49.356;2.718;2022-08-23T02:41:08;3.40;;;1.60;;
23404;SDS011;11875;49.356;2.718;2022-08-23T02:43:33;3.17;;;1.48;;
23404;SDS011;11875;49.356;2.718;2022-08-23T02:46:01;4.60;;;1.92;;
23404;SDS011;11875;49.356;2.718;2022-08-23T02:48:31;2.42;;;1.50;;
23404;SDS011;11875;49.356;2.718;2022-08-23T02:51:01;6.55;;;1.90;;
23404;SDS011;11875;49.356;2.718;2022-08-23T02:53:29;3.97;;;1.73;;
23404;SDS011;11875;49.356;2.718;2022-08-23T02:55:55;3.40;;;1.55;;
23404;SDS011;11875;49.356;2.718;2022-08-23T02:58:21;5.70;;;1.33;;
23404;SDS011;11875;49.356;2.718;2022-08-23T03:00:48;4.32;;;1.30;;
23404;SDS011;11875;49.356;2.718;2022-08-23T03:03:14;7.43;;;2.00;;
23404;SDS011;11875;49.356;2.718;2022-08-23T03:05:40;3.85;;;1.30;;
23404;SDS011;11875;49.356;2.718;2022-08-23T03:08:06;3.50;;;1.83;;
23404;SDS011;11875;49.356;2.718;2022-08-23T03:10:32;9.32;;;1.80;;
23404;SDS011;11875;49.356;2.718;2022-08-23T03:12:58;3.30;;;1.30;;
23404;SDS011;11875;49.356;2.718;2022-08-23T03:15:26;5.22;;;1.50;;
23404;SDS011;11875;49.356;2.718;2022-08-23T03:17:52;2.03;;;1.35;;
23404;SDS011;11875;49.356;2.718;2022-08-23T03:20:17;4.32;;;2.00;;
23404;SDS011;11875;49.356;2.718;2022-08-23T03:22:43;4.07;;;1.80;;
23404;SDS011;11875;49.356;2.718;2022-08-23T03:25:09;7.72;;;1.70;;
23404;SDS011;11875;49.356;2.718;2022-08-23T03:27:35;6.90;;;1.60;;
23404;SDS011;11875;49.356;2.718;2022-08-23T03:30:02;11.02;;;2.10;;
23404;SDS011;11875;49.356;2.718;2022-08-23T03:32:29;5.30;;;1.83;;
23404;SDS011;11875;49.356;2.718;2022-08-23T03:34:54;3.58;;;1.50;;
23404;SDS011;11875;49.356;2.718;2022-08-23T03:37:20;7.28;;;1.80;;
23404;SDS011;11875;49.356;2.718;2022-08-23T03:39:46;4.15;;;1.35;;
23404;SDS011;11875;49.356;2.718;2022-08-23T03:42:11;4.40;;;1.30;;
23404;SDS011;11875;49.356;2.718;2022-08-23T03:44:37;4.97;;;1.60;;
23404;SDS011;11875;49.356;2.718;2022-08-23T03:47:03;4.40;;;1.42;;
23404;SDS011;11875;49.356;2.718;2022-08-23T03:49:30;4.07;;;1.33;;
23404;SDS011;11875;49.356;2.718;2022-08-23T03:51:56;1.67;;;1.10;;
23404;SDS011;11875;49.356;2.718;2022-08-23T03:54:24;3.15;;;1.70;;
23404;SDS011;11875;49.356;2.718;2022-08-23T03:57:04;7.63;;;1.63;;
23404;SDS011;11875;49.356;2.718;2022-08-23T03:59:34;8.73;;;2.08;;
23404;SDS011;11875;49.356;2.718;2022-08-23T04:02:01;2.58;;;1.60;;
23404;SDS011;11875;49.356;2.718;2022-08-23T04:04:26;13.15;;;2.05;;
23404;SDS011;11875;49.356;2.718;2022-08-23T04:06:52;5.45;;;1.50;;
23404;SDS011;11875;49.356;2.718;2022-08-23T04:09:18;3.00;;;1.50;;
23404;SDS011;11875;49.356;2.718;2022-08-23T04:11:44;5.43;;;2.10;;
23404;SDS011;11875;49.356;2.718;2022-08-23T04:14:09;4.25;;;1.48;;
23404;SDS011;11875;49.356;2.718;2022-08-23T04:16:37;3.40;;;1.38;;
23404;SDS011;11875;49.356;2.718;2022-08-23T04:19:04;11.30;;;1.63;;
23404;SDS011;11875;49.356;2.718;2022-08-23T04:21:31;4.03;;;1.48;;
23404;SDS011;11875;49.356;2.718;2022-08-23T04:23:58;2.65;;;1.60;;
23404;SDS011;11875;49.356;2.718;2022-08-23T04:26:24;5.22;;;1.50;;
23404;SDS011;11875;49.356;2.718;2022-08-23T04:28:49;3.50;;;1.27;;
23404;SDS011;11875;49.356;2.718;2022-08-23T04:31:16;3.97;;;1.27;;
23404;SDS011;11875;49.356;2.718;2022-08-23T04:33:43;3.78;;;1.55;;
23404;SDS011;11875;49.356;2.718;2022-08-23T04:36:09;3.03;;;1.30;;
23404;SDS011;11875;49.356;2.718;2022-08-23T04:38:34;2.28;;;1.50;;
23404;SDS011;11875;49.356;2.718;2022-08-23T04:41:00;6.75;;;1.73;;
23404;SDS011;11875;49.356;2.718;2022-08-23T04:43:44;2.75;;;1.40;;
23404;SDS011;11875;49.356;2.718;2022-08-23T04:46:10;4.00;;;1.90;;
23404;SDS011;11875;49.356;2.718;2022-08-23T04:48:43;5.93;;;1.45;;
23404;SDS011;11875;49.356;2.718;2022-08-23T04:51:10;3.90;;;1.83;;
23404;SDS011;11875;49.356;2.718;2022-08-23T04:53:36;1.58;;;1.48;;
23404;SDS011;11875;49.356;2.718;2022-08-23T04:56:03;4.20;;;1.30;;
23404;SDS011;11875;49.356;2.718;2022-08-23T04:58:30;4.22;;;1.63;;
23404;SDS011;11875;49.356;2.718;2022-08-23T05:00:57;3.88;;;1.60;;
23404;SDS011;11875;49.356;2.718;2022-08-23T05:03:24;4.82;;;1.80;;
23404;SDS011;11875;49.356;2.718;2022-08-23T05:05:51;2.72;;;1.90;;
23404;SDS011;11875;49.356;2.718;2022-08-23T05:08:18;2.70;;;2.28;;
23404;SDS011;11875;49.356;2.718;2022-08-23T05:10:44;6.40;;;2.47;;
23404;SDS011;11875;49.356;2.718;2022-08-23T05:13:10;1.85;;;1.60;;
23404;SDS011;11875;49.356;2.718;2022-08-23T05:15:36;2.60;;;1.75;;
23404;SDS011;11875;49.356;2.718;2022-08-23T05:18:02;3.25;;;1.73;;
23404;SDS011;11875;49.356;2.718;2022-08-23T05:20:28;2.75;;;1.60;;
23404;SDS011;11875;49.356;2.718;2022-08-23T05:22:54;3.95;;;1.70;;
23404;SDS011;11875;49.356;2.718;2022-08-23T05:25:20;2.28;;;1.50;;
23404;SDS011;11875;49.356;2.718;2022-08-23T05:27:46;2.35;;;1.70;;
23404;SDS011;11875;49.356;2.718;2022-08-23T05:30:11;3.15;;;2.00;;
23404;SDS011;11875;49.356;2.718;2022-08-23T05:32:38;7.97;;;2.70;;
23404;SDS011;11875;49.356;2.718;2022-08-23T05:35:04;2.85;;;1.65;;
23404;SDS011;11875;49.356;2.718;2022-08-23T05:37:30;7.00;;;1.65;;
23404;SDS011;11875;49.356;2.718;2022-08-23T05:39:56;6.90;;;1.92;;
23404;SDS011;11875;49.356;2.718;2022-08-23T05:42:22;10.55;;;1.85;;
23404;SDS011;11875;49.356;2.718;2022-08-23T05:44:47;4.63;;;1.73;;
23404;SDS011;11875;49.356;2.718;2022-08-23T05:47:14;5.05;;;1.73;;
23404;SDS011;11875;49.356;2.718;2022-08-23T05:49:41;4.43;;;1.48;;
23404;SDS011;11875;49.356;2.718;2022-08-23T05:52:08;12.68;;;1.80;;
23404;SDS011;11875;49.356;2.718;2022-08-23T05:54:36;3.75;;;1.48;;
23404;SDS011;11875;49.356;2.718;2022-08-23T05:57:03;7.28;;;1.58;;
23404;SDS011;11875;49.356;2.718;2022-08-23T05:59:28;5.85;;;2.05;;
23404;SDS011;11875;49.356;2.718;2022-08-23T06:01:54;4.95;;;2.00;;
23404;SDS011;11875;49.356;2.718;2022-08-23T06:04:21;10.05;;;3.50;;
23404;SDS011;11875;49.356;2.718;2022-08-23T06:06:47;12.73;;;2.65;;
23404;SDS011;11875;49.356;2.718;2022-08-23T06:09:13;6.20;;;2.17;;
23404;SDS011;11875;49.356;2.718;2022-08-23T06:11:41;19.33;;;2.85;;
23404;SDS011;11875;49.356;2.718;2022-08-23T06:14:11;4.65;;;1.67;;
23404;SDS011;11875;49.356;2.718;2022-08-23T06:16:42;7.05;;;2.45;;
23404;SDS011;11875;49.356;2.718;2022-08-23T06:19:10;7.10;;;1.88;;
23404;SDS011;11875;49.356;2.718;2022-08-23T06:21:37;4.90;;;2.03;;
23404;SDS011;11875;49.356;2.718;2022-08-23T06:24:03;4.97;;;1.80;;
23404;SDS011;11875;49.356;2.718;2022-08-23T06:26:33;6.20;;;2.00;;
23404;SDS011;11875;49.356;2.718;2022-08-23T06:29:03;4.32;;;1.60;;
23404;SDS011;11875;49.356;2.718;2022-08-23T06:31:31;7.63;;;1.90;;
23404;SDS011;11875;49.356;2.718;2022-08-23T06:34:10;4.50;;;1.80;;
23404;SDS011;11875;49.356;2.718;2022-08-23T06:36:39;11.05;;;2.45;;
23404;SDS011;11875;49.356;2.718;2022-08-23T06:39:06;3.92;;;1.65;;
23404;SDS011;11875;49.356;2.718;2022-08-23T06:41:33;23.60;;;2.85;;
23404;SDS011;11875;49.356;2.718;2022-08-23T06:43:59;11.75;;;1.98;;
23404;SDS011;11875;49.356;2.718;2022-08-23T06:46:25;10.48;;;2.00;;
23404;SDS011;11875;49.356;2.718;2022-08-23T06:48:52;11.60;;;2.72;;
23404;SDS011;11875;49.356;2.718;2022-08-23T06:51:29;7.40;;;1.77;;
23404;SDS011;11875;49.356;2.718;2022-08-23T06:54:04;6.65;;;1.88;;
23404;SDS011;11875;49.356;2.718;2022-08-23T06:56:32;9.07;;;1.95;;
23404;SDS011;11875;49.356;2.718;2022-08-23T06:58:59;7.25;;;2.47;;
23404;SDS011;11875;49.356;2.718;2022-08-23T07:01:41;12.15;;;4.90;;
23404;SDS011;11875;49.356;2.718;2022-08-23T07:04:09;15.77;;;2.05;;
23404;SDS011;11875;49.356;2.718;2022-08-23T07:06:36;7.05;;;1.80;;
23404;SDS011;11875;49.356;2.718;2022-08-23T07:09:03;5.25;;;2.17;;
23404;SDS011;11875;49.356;2.718;2022-08-23T07:11:29;32.05;;;3.70;;
23404;SDS011;11875;49.356;2.718;2022-08-23T07:13:59;8.45;;;1.92;;
23404;SDS011;11875;49.356;2.718;2022-08-23T07:16:33;6.10;;;2.00;;
23404;SDS011;11875;49.356;2.718;2022-08-23T07:19:00;13.43;;;2.47;;
23404;SDS011;11875;49.356;2.718;2022-08-23T07:21:26;9.88;;;2.30;;
23404;SDS011;11875;49.356;2.718;2022-08-23T07:23:52;10.63;;;2.35;;
23404;SDS011;11875;49.356;2.718;2022-08-23T07:26:17;10.45;;;1.88;;
23404;SDS011;11875;49.356;2.718;2022-08-23T07:28:43;8.75;;;2.10;;
23404;SDS011;11875;49.356;2.718;2022-08-23T07:31:17;7.18;;;1.90;;
23404;SDS011;11875;49.356;2.718;2022-08-23T07:33:47;7.07;;;1.95;;
23404;SDS011;11875;49.356;2.718;2022-08-23T07:36:15;4.72;;;2.00;;
23404;SDS011;11875;49.356;2.718;2022-08-23T07:38:42;5.68;;;1.98;;
23404;SDS011;11875;49.356;2.718;2022-08-23T07:41:09;7.00;;;2.03;;
23404;SDS011;11875;49.356;2.718;2022-08-23T07:43:35;5.20;;;2.20;;
23404;SDS011;11875;49.356;2.718;2022-08-23T07:46:02;8.43;;;2.03;;
23404;SDS011;11875;49.356;2.718;2022-08-23T07:48:28;4.68;;;2.13;;
23404;SDS011;11875;49.356;2.718;2022-08-23T07:50:55;10.15;;;2.35;;
23404;SDS011;11875;49.356;2.718;2022-08-23T07:53:23;8.40;;;2.05;;
23404;SDS011;11875;49.356;2.718;2022-08-23T07:55:50;7.25;;;1.80;;
23404;SDS011;11875;49.356;2.718;2022-08-23T07:58:16;7.93;;;2.25;;
23404;SDS011;11875;49.356;2.718;2022-08-23T08:00:42;10.50;;;2.55;;
23404;SDS011;11875;49.356;2.718;2022-08-23T08:03:08;13.38;;;2.90;;
23404;SDS011;11875;49.356;2.718;2022-08-23T08:05:35;8.95;;;2.60;;
23404;SDS011;11875;49.356;2.718;2022-08-23T08:08:02;6.00;;;2.22;;
23404;SDS011;11875;49.356;2.718;2022-08-23T08:10:28;15.90;;;2.38;;
23404;SDS011;11875;49.356;2.718;2022-08-23T08:12:54;4.45;;;2.53;;
23404;SDS011;11875;49.356;2.718;2022-08-23T08:15:21;5.75;;;1.95;;
23404;SDS011;11875;49.356;2.718;2022-08-23T08:17:48;4.07;;;1.98;;
23404;SDS011;11875;49.356;2.718;2022-08-23T08:20:14;5.25;;;1.67;;
23404;SDS011;11875;49.356;2.718;2022-08-23T08:22:40;5.38;;;1.80;;
23404;SDS011;11875;49.356;2.718;2022-08-23T08:25:06;6.10;;;1.85;;
23404;SDS011;11875;49.356;2.718;2022-08-23T08:27:33;4.68;;;2.00;;
23404;SDS011;11875;49.356;2.718;2022-08-23T08:29:58;4.78;;;1.80;;
23404;SDS011;11875;49.356;2.718;2022-08-23T08:32:24;3.60;;;1.50;;
23404;SDS011;11875;49.356;2.718;2022-08-23T08:34:49;9.23;;;2.03;;
23404;SDS011;11875;49.356;2.718;2022-08-23T08:37:15;5.15;;;1.65;;
23404;SDS011;11875;49.356;2.718;2022-08-23T08:39:41;9.55;;;1.90;;
23404;SDS011;11875;49.356;2.718;2022-08-23T08:50:20;6.13;;;1.70;;
23404;SDS011;11875;49.356;2.718;2022-08-23T08:55:37;1.95;;;1.30;;
23404;SDS011;11875;49.356;2.718;2022-08-23T08:58:11;3.28;;;1.52;;
23404;SDS011;11875;49.356;2.718;2022-08-23T09:00:44;5.28;;;1.50;;
23404;SDS011;11875;49.356;2.718;2022-08-23T09:03:15;2.65;;;1.27;;
23404;SDS011;11875;49.356;2.718;2022-08-23T09:06:30;4.30;;;1.60;;
23404;SDS011;11875;49.356;2.718;2022-08-23T09:13:59;1.75;;;1.30;;
23404;SDS011;11875;49.356;2.718;2022-08-23T09:19:14;4.25;;;1.60;;
23404;SDS011;11875;49.356;2.718;2022-08-23T09:21:46;3.45;;;1.50;;
23404;SDS011;11875;49.356;2.718;2022-08-23T09:24:18;4.43;;;1.50;;
23404;SDS011;11875;49.356;2.718;2022-08-23T09:26:43;3.88;;;1.50;;
23404;SDS011;11875;49.356;2.718;2022-08-23T09:29:17;3.17;;;1.40;;
23404;SDS011;11875;49.356;2.718;2022-08-23T09:31:55;3.03;;;1.38;;
23404;SDS011;11875;49.356;2.718;2022-08-23T09:37:11;2.05;;;1.33;;
23404;SDS011;11875;49.356;2.718;2022-08-23T09:39:45;3.25;;;1.25;;
23404;SDS011;11875;49.356;2.718;2022-08-23T09:45:00;2.05;;;1.30;;
23404;SDS011;11875;49.356;2.718;2022-08-23T09:47:38;4.88;;;1.30;;
23404;SDS011;11875;49.356;2.718;2022-08-23T09:50:28;2.95;;;1.40;;
23404;SDS011;11875;49.356;2.718;2022-08-23T09:52:56;3.60;;;1.63;;
23404;SDS011;11875;49.356;2.718;2022-08-23T09:58:00;3.13;;;2.10;;
23404;SDS011;11875;49.356;2.718;2022-08-23T10:00:35;3.28;;;1.40;;
23404;SDS011;11875;49.356;2.718;2022-08-23T10:03:18;1.67;;;1.15;;
23404;SDS011;11875;49.356;2.718;2022-08-23T10:05:53;1.60;;;1.10;;
23404;SDS011;11875;49.356;2.718;2022-08-23T10:08:21;2.55;;;1.50;;
23404;SDS011;11875;49.356;2.718;2022-08-23T10:10:52;3.00;;;1.55;;
23404;SDS011;11875;49.356;2.718;2022-08-23T10:13:22;1.85;;;1.55;;
23404;SDS011;11875;49.356;2.718;2022-08-23T10:18:45;3.20;;;1.52;;
23404;SDS011;11875;49.356;2.718;2022-08-23T10:21:44;1.50;;;0.90;;
23404;SDS011;11875;49.356;2.718;2022-08-23T10:32:49;2.72;;;1.15;;
23404;SDS011;11875;49.356;2.718;2022-08-23T10:35:25;1.20;;;0.95;;
23404;SDS011;11875;49.356;2.718;2022-08-23T10:40:26;2.05;;;1.02;;
23404;SDS011;11875;49.356;2.718;2022-08-23T10:45:49;1.92;;;1.30;;
23404;SDS011;11875;49.356;2.718;2022-08-23T10:48:36;1.73;;;1.30;;
23404;SDS011;11875;49.356;2.718;2022-08-23T10:51:19;2.65;;;1.00;;
23404;SDS011;11875;49.356;2.718;2022-08-23T10:53:56;4.20;;;1.15;;
23404;SDS011;11875;49.356;2.718;2022-08-23T10:56:28;1.17;;;0.90;;
23404;SDS011;11875;49.356;2.718;2022-08-23T11:01:23;2.95;;;1.00;;
23404;SDS011;11875;49.356;2.718;2022-08-23T11:04:50;2.10;;;0.82;;
23404;SDS011;11875;49.356;2.718;2022-08-23T11:06:58;1.08;;;0.77;;
23404;SDS011;11875;49.356;2.718;2022-08-23T11:14:41;3.95;;;1.00;;
23404;SDS011;11875;49.356;2.718;2022-08-23T11:17:24;2.30;;;0.98;;
23404;SDS011;11875;49.356;2.718;2022-08-23T11:20:52;3.97;;;0.80;;
23404;SDS011;11875;49.356;2.718;2022-08-23T11:23:16;2.05;;;0.70;;
23404;SDS011;11875;49.356;2.718;2022-08-23T11:25:59;2.40;;;0.85;;
23404;SDS011;11875;49.356;2.718;2022-08-23T11:49:14;6.25;;;1.00;;
23404;SDS011;11875;49.356;2.718;2022-08-23T12:01:04;1.35;;;0.80;;
23404;SDS011;11875;49.356;2.718;2022-08-23T12:03:38;3.60;;;0.80;;
23404;SDS011;11875;49.356;2.718;2022-08-23T12:11:25;1.25;;;0.60;;
23404;SDS011;11875;49.356;2.718;2022-08-23T12:19:52;0.75;;;0.60;;
23404;SDS011;11875;49.356;2.718;2022-08-23T12:22:24;4.30;;;0.70;;
23404;SDS011;11875;49.356;2.718;2022-08-23T12:24:56;0.63;;;0.60;;
23404;SDS011;11875;49.356;2.718;2022-08-23T12:38:16;2.20;;;0.60;;
23404;SDS011;11875;49.356;2.718;2022-08-23T12:40:54;2.22;;;0.93;;
23404;SDS011;11875;49.356;2.718;2022-08-23T12:43:25;0.80;;;0.60;;
23404;SDS011;11875;49.356;2.718;2022-08-23T12:45:54;2.05;;;0.60;;
23404;SDS011;11875;49.356;2.718;2022-08-23T12:48:24;0.50;;;0.50;;
23404;SDS011;11875;49.356;2.718;2022-08-23T12:50:56;2.25;;;0.80;;
23404;SDS011;11875;49.356;2.718;2022-08-23T12:53:28;3.08;;;0.70;;
23404;SDS011;11875;49.356;2.718;2022-08-23T12:56:03;0.65;;;0.60;;
23404;SDS011;11875;49.356;2.718;2022-08-23T12:58:57;5.80;;;1.00;;
23404;SDS011;11875;49.356;2.718;2022-08-23T13:01:28;2.25;;;0.88;;
23404;SDS011;11875;49.356;2.718;2022-08-23T13:03:57;8.60;;;0.93;;
23404;SDS011;11875;49.356;2.718;2022-08-23T13:06:32;2.13;;;0.73;;
23404;SDS011;11875;49.356;2.718;2022-08-23T13:09:05;4.13;;;0.70;;
23404;SDS011;11875;49.356;2.718;2022-08-23T13:11:33;0.77;;;0.70;;
23404;SDS011;11875;49.356;2.718;2022-08-23T13:14:20;2.60;;;0.63;;
23404;SDS011;11875;49.356;2.718;2022-08-23T13:19:53;2.72;;;0.80;;
23404;SDS011;11875;49.356;2.718;2022-08-23T13:22:24;1.30;;;0.50;;
23404;SDS011;11875;49.356;2.718;2022-08-23T13:30:17;2.25;;;0.65;;
23404;SDS011;11875;49.356;2.718;2022-08-23T13:32:48;0.93;;;0.57;;
23404;SDS011;11875;49.356;2.718;2022-08-23T13:35:27;2.45;;;0.98;;
23404;SDS011;11875;49.356;2.718;2022-08-23T13:37:58;1.55;;;0.70;;
23404;SDS011;11875;49.356;2.718;2022-08-23T13:40:31;0.55;;;0.52;;
23404;SDS011;11875;49.356;2.718;2022-08-23T13:43:03;1.55;;;0.68;;
23404;SDS011;11875;49.356;2.718;2022-08-23T13:45:33;1.85;;;0.60;;
23404;SDS011;11875;49.356;2.718;2022-08-23T13:50:39;3.47;;;0.70;;
23404;SDS011;11875;49.356;2.718;2022-08-23T13:53:05;0.70;;;0.70;;
23404;SDS011;11875;49.356;2.718;2022-08-23T13:55:33;1.00;;;0.80;;
23404;SDS011;11875;49.356;2.718;2022-08-23T13:58:14;0.73;;;0.60;;
23404;SDS011;11875;49.356;2.718;2022-08-23T14:00:48;3.53;;;0.70;;
23404;SDS011;11875;49.356;2.718;2022-08-23T14:03:14;1.25;;;0.65;;
23404;SDS011;11875;49.356;2.718;2022-08-23T14:05:40;0.60;;;0.60;;
23404;SDS011;11875;49.356;2.718;2022-08-23T14:08:06;16.25;;;1.92;;
23404;SDS011;11875;49.356;2.718;2022-08-23T14:10:33;0.50;;;0.50;;
23404;SDS011;11875;49.356;2.718;2022-08-23T14:12:59;2.95;;;0.70;;
23404;SDS011;11875;49.356;2.718;2022-08-23T14:15:26;1.67;;;0.50;;
23404;SDS011;11875;49.356;2.718;2022-08-23T14:17:52;1.88;;;0.70;;
23404;SDS011;11875;49.356;2.718;2022-08-23T14:20:19;2.60;;;0.50;;
23404;SDS011;11875;49.356;2.718;2022-08-23T14:22:47;1.00;;;0.60;;
23404;SDS011;11875;49.356;2.718;2022-08-23T14:25:13;0.50;;;0.50;;
23404;SDS011;11875;49.356;2.718;2022-08-23T14:27:41;1.80;;;0.63;;
23404;SDS011;11875;49.356;2.718;2022-08-23T14:30:09;1.70;;;1.15;;
23404;SDS011;11875;49.356;2.718;2022-08-23T14:32:39;1.42;;;0.50;;
23404;SDS011;11875;49.356;2.718;2022-08-23T14:35:05;4.75;;;1.00;;
23404;SDS011;11875;49.356;2.718;2022-08-23T14:37:32;0.63;;;0.57;;
23404;SDS011;11875;49.356;2.718;2022-08-23T14:39:57;1.17;;;0.50;;
23404;SDS011;11875;49.356;2.718;2022-08-23T14:42:23;0.95;;;0.65;;
23404;SDS011;11875;49.356;2.718;2022-08-23T14:44:49;0.88;;;0.45;;
23404;SDS011;11875;49.356;2.718;2022-08-23T14:47:15;1.10;;;0.60;;
23404;SDS011;11875;49.356;2.718;2022-08-23T14:49:41;3.03;;;0.60;;
23404;SDS011;11875;49.356;2.718;2022-08-23T14:52:07;1.88;;;0.70;;
23404;SDS011;11875;49.356;2.718;2022-08-23T14:54:33;1.63;;;0.80;;
23404;SDS011;11875;49.356;2.718;2022-08-23T14:56:59;3.50;;;1.00;;
23404;SDS011;11875;49.356;2.718;2022-08-23T14:59:24;1.58;;;0.60;;
23404;SDS011;11875;49.356;2.718;2022-08-23T15:01:50;2.38;;;0.90;;
23404;SDS011;11875;49.356;2.718;2022-08-23T15:04:18;1.95;;;0.70;;
23404;SDS011;11875;49.356;2.718;2022-08-23T15:06:45;1.15;;;0.77;;
23404;SDS011;11875;49.356;2.718;2022-08-23T15:09:11;1.73;;;0.63;;
23404;SDS011;11875;49.356;2.718;2022-08-23T15:11:37;2.33;;;0.60;;
23404;SDS011;11875;49.356;2.718;2022-08-23T15:14:03;5.95;;;0.98;;
23404;SDS011;11875;49.356;2.718;2022-08-23T15:16:29;0.60;;;0.60;;
23404;SDS011;11875;49.356;2.718;2022-08-23T15:18:55;1.42;;;0.60;;
23404;SDS011;11875;49.356;2.718;2022-08-23T15:21:21;1.23;;;0.68;;
23404;SDS011;11875;49.356;2.718;2022-08-23T15:23:47;0.57;;;0.50;;
23404;SDS011;11875;49.356;2.718;2022-08-23T15:26:15;2.28;;;0.60;;
23404;SDS011;11875;49.356;2.718;2022-08-23T15:28:43;1.38;;;0.50;;
23404;SDS011;11875;49.356;2.718;2022-08-23T15:31:08;1.08;;;0.55;;
23404;SDS011;11875;49.356;2.718;2022-08-23T15:33:37;0.73;;;0.57;;
23404;SDS011;11875;49.356;2.718;2022-08-23T15:36:03;1.10;;;0.70;;
23404;SDS011;11875;49.356;2.718;2022-08-23T15:38:32;1.00;;;0.90;;
23404;SDS011;11875;49.356;2.718;2022-08-23T15:40:59;1.80;;;0.60;;
23404;SDS011;11875;49.356;2.718;2022-08-23T15:43:25;2.05;;;0.70;;
23404;SDS011;11875;49.356;2.718;2022-08-23T15:45:51;2.50;;;0.43;;
23404;SDS011;11875;49.356;2.718;2022-08-23T15:48:24;0.82;;;0.60;;
23404;SDS011;11875;49.356;2.718;2022-08-23T15:50:53;2.20;;;0.45;;
23404;SDS011;11875;49.356;2.718;2022-08-23T15:53:20;3.10;;;0.80;;
23404;SDS011;11875;49.356;2.718;2022-08-23T15:55:46;1.25;;;0.80;;
23404;SDS011;11875;49.356;2.718;2022-08-23T15:58:14;1.38;;;0.50;;
23404;SDS011;11875;49.356;2.718;2022-08-23T16:00:42;0.50;;;0.50;;
23404;SDS011;11875;49.356;2.718;2022-08-23T16:03:08;8.85;;;0.70;;
23404;SDS011;11875;49.356;2.718;2022-08-23T16:05:35;1.10;;;0.70;;
23404;SDS011;11875;49.356;2.718;2022-08-23T16:08:05;2.08;;;0.60;;
23404;SDS011;11875;49.356;2.718;2022-08-23T16:10:32;5.28;;;0.70;;
23404;SDS011;11875;49.356;2.718;2022-08-23T16:12:58;1.35;;;0.35;;
23404;SDS011;11875;49.356;2.718;2022-08-23T16:15:24;1.42;;;0.50;;
23404;SDS011;11875;49.356;2.718;2022-08-23T16:17:50;2.72;;;0.73;;
23404;SDS011;11875;49.356;2.718;2022-08-23T16:20:15;2.33;;;0.50;;
23404;SDS011;11875;49.356;2.718;2022-08-23T16:22:41;0.73;;;0.40;;
23404;SDS011;11875;49.356;2.718;2022-08-23T16:25:08;1.23;;;0.63;;
23404;SDS011;11875;49.356;2.718;2022-08-23T16:27:34;1.38;;;0.38;;
23404;SDS011;11875;49.356;2.718;2022-08-23T16:30:00;9.05;;;0.65;;
23404;SDS011;11875;49.356;2.718;2022-08-23T16:32:26;0.57;;;0.50;;
23404;SDS011;11875;49.356;2.718;2022-08-23T16:34:52;1.00;;;0.77;;
23404;SDS011;11875;49.356;2.718;2022-08-23T16:37:17;0.50;;;0.45;;
23404;SDS011;11875;49.356;2.718;2022-08-23T16:39:44;2.25;;;0.52;;
23404;SDS011;11875;49.356;2.718;2022-08-23T16:42:10;1.15;;;0.60;;
23404;SDS011;11875;49.356;2.718;2022-08-23T16:44:36;2.10;;;0.50;;
23404;SDS011;11875;49.356;2.718;2022-08-23T16:47:02;2.08;;;0.60;;
23404;SDS011;11875;49.356;2.718;2022-08-23T16:49:29;2.03;;;0.60;;
23404;SDS011;11875;49.356;2.718;2022-08-23T16:51:57;0.80;;;0.60;;
23404;SDS011;11875;49.356;2.718;2022-08-23T16:54:24;3.45;;;2.50;;
23404;SDS011;11875;49.356;2.718;2022-08-23T16:56:51;1.45;;;1.00;;
23404;SDS011;11875;49.356;2.718;2022-08-23T16:59:17;4.75;;;0.55;;